Time;durP1;ratioP1;P1;durP2;ratioP2;P2;SDS_P1;SDS_P2;PMS_P1;PMS_P2;Temp;Humidity;BMP_temperature;BMP_pressure;BME280_temperature;BME280_humidity;BME280_pressure;Samples;Min_cycle;Max_cycle;Signal;HPM_P1;HPM_P2
2021/01/06 00:00:59;;;;;;;1.38;1.10;;;;;;;;;;5048344;28;20083;-50
2021/01/06 00:03:25;;;;;;;1.15;1.02;;;;;;;;;;5046967;28;20044;-48
2021/01/06 00:05:52;;;;;;;1.45;1.00;;;;;;;;;;5048258;28;20029;-49
2021/01/06 00:08:18;;;;;;;0.88;0.88;;;;;;;;;;5044356;28;20056;-48
2021/01/06 00:10:45;;;;;;;0.90;0.90;;;;;;;;;;5048012;28;20021;-49
2021/01/06 00:13:11;;;;;;;1.08;0.98;;;;;;;;;;5048293;28;20025;-48
2021/01/06 00:15:37;;;;;;;1.38;1.00;;;;;;;;;;5047587;28;20040;-49
2021/01/06 00:18:04;;;;;;;1.23;1.00;;;;;;;;;;5016994;28;20048;-50
2021/01/06 00:20:30;;;;;;;0.90;0.90;;;;;;;;;;5030093;28;20040;-48
2021/01/06 00:22:56;;;;;;;1.13;1.00;;;;;;;;;;5047852;28;20028;-48
2021/01/06 00:25:23;;;;;;;1.05;1.00;;;;;;;;;;5046045;28;20017;-48
2021/01/06 00:27:49;;;;;;;1.10;1.00;;;;;;;;;;5048263;28;20029;-49
2021/01/06 00:30:18;;;;;;;1.10;0.93;;;;;;;;;;5048114;28;20021;-48
2021/01/06 00:32:44;;;;;;;1.23;1.00;;;;;;;;;;5050031;28;20057;-48
2021/01/06 00:35:10;;;;;;;1.77;1.20;;;;;;;;;;5047614;28;20107;-48
2021/01/06 00:37:36;;;;;;;1.10;1.00;;;;;;;;;;5047302;28;20269;-48
2021/01/06 00:40:02;;;;;;;1.15;1.00;;;;;;;;;;5047568;28;20447;-48
2021/01/06 00:42:28;;;;;;;1.20;1.00;;;;;;;;;;5029374;28;20028;-48
2021/01/06 00:44:54;;;;;;;1.50;1.15;;;;;;;;;;5047603;28;20410;-48
2021/01/06 00:47:20;;;;;;;1.70;1.30;;;;;;;;;;5047509;28;20029;-48
2021/01/06 00:49:46;;;;;;;1.52;1.15;;;;;;;;;;5047869;28;20028;-49
2021/01/06 00:52:12;;;;;;;1.10;0.98;;;;;;;;;;5047424;28;20025;-48
2021/01/06 00:54:38;;;;;;;1.48;1.10;;;;;;;;;;5046748;28;20118;-48
2021/01/06 00:57:04;;;;;;;1.35;1.10;;;;;;;;;;5045858;28;20103;-48
2021/01/06 00:59:30;;;;;;;1.50;1.05;;;;;;;;;;5047080;28;20364;-48
2021/01/06 01:01:56;;;;;;;1.17;0.98;;;;;;;;;;5047416;28;20032;-48
2021/01/06 01:04:22;;;;;;;1.80;1.23;;;;;;;;;;5046945;28;20071;-48
2021/01/06 01:06:50;;;;;;;1.65;1.10;;;;;;;;;;5047668;28;20071;-49
2021/01/06 01:09:16;;;;;;;1.52;1.20;;;;;;;;;;5047890;28;20032;-51
2021/01/06 01:11:42;;;;;;;1.30;1.08;;;;;;;;;;5046035;28;20022;-48
2021/01/06 01:14:08;;;;;;;1.35;1.00;;;;;;;;;;5047109;28;20029;-48
2021/01/06 01:16:39;;;;;;;1.27;0.98;;;;;;;;;;5046593;28;20084;-49
2021/01/06 01:19:05;;;;;;;1.70;1.15;;;;;;;;;;5032502;28;20047;-48
2021/01/06 01:21:31;;;;;;;1.60;1.30;;;;;;;;;;5046550;28;20104;-48
2021/01/06 01:23:57;;;;;;;1.40;1.10;;;;;;;;;;5047079;28;20025;-48
2021/01/06 01:26:24;;;;;;;1.60;1.17;;;;;;;;;;5046649;28;20032;-48
2021/01/06 01:28:49;;;;;;;1.73;1.20;;;;;;;;;;5044625;28;20048;-49
2021/01/06 01:31:15;;;;;;;1.23;1.05;;;;;;;;;;5047483;28;20479;-48
2021/01/06 01:33:42;;;;;;;1.75;1.30;;;;;;;;;;5046787;28;20021;-48
2021/01/06 01:36:08;;;;;;;1.33;1.13;;;;;;;;;;5044511;28;20013;-48
2021/01/06 01:38:34;;;;;;;1.50;1.10;;;;;;;;;;5046574;28;20021;-49
2021/01/06 01:41:01;;;;;;;1.40;1.20;;;;;;;;;;5046921;28;20029;-49
2021/01/06 01:43:28;;;;;;;1.65;1.25;;;;;;;;;;5046431;28;20033;-48
2021/01/06 01:45:54;;;;;;;1.30;1.20;;;;;;;;;;5046927;28;20041;-49
2021/01/06 01:48:23;;;;;;;1.60;1.17;;;;;;;;;;5047047;28;20040;-49
2021/01/06 01:50:49;;;;;;;1.60;1.20;;;;;;;;;;5049436;28;20494;-49
2021/01/06 01:53:16;;;;;;;1.67;1.10;;;;;;;;;;5033994;28;20052;-49
2021/01/06 01:55:42;;;;;;;1.23;1.10;;;;;;;;;;5051368;28;20100;-50
2021/01/06 01:58:13;;;;;;;1.80;1.33;;;;;;;;;;5050623;28;20105;-48
2021/01/06 02:00:39;;;;;;;1.42;1.10;;;;;;;;;;5032773;28;20395;-48
2021/01/06 02:03:05;;;;;;;1.38;1.17;;;;;;;;;;5032665;28;20119;-49
2021/01/06 02:05:38;;;;;;;2.75;1.50;;;;;;;;;;5049942;28;20025;-48
2021/01/06 02:08:12;;;;;;;1.42;1.00;;;;;;;;;;5050572;28;20071;-48
2021/01/06 02:10:38;;;;;;;1.75;1.20;;;;;;;;;;5019013;28;20032;-49
2021/01/06 02:13:15;;;;;;;1.20;1.10;;;;;;;;;;5032655;28;20052;-48
2021/01/06 02:15:46;;;;;;;1.63;1.23;;;;;;;;;;5032323;28;20041;-49
2021/01/06 02:18:12;;;;;;;1.40;1.10;;;;;;;;;;5031622;28;20175;-48
2021/01/06 02:20:38;;;;;;;1.33;1.08;;;;;;;;;;5048645;28;20029;-48
2021/01/06 02:23:04;;;;;;;1.42;1.10;;;;;;;;;;5050166;28;20047;-49
2021/01/06 02:25:30;;;;;;;1.92;1.30;;;;;;;;;;5031755;28;20430;-48
2021/01/06 02:27:56;;;;;;;1.58;1.20;;;;;;;;;;5032576;28;20029;-48
2021/01/06 02:30:22;;;;;;;1.60;1.10;;;;;;;;;;5032486;28;20025;-49
2021/01/06 02:32:49;;;;;;;1.58;1.08;;;;;;;;;;5032885;28;20043;-48
2021/01/06 02:35:15;;;;;;;1.92;1.17;;;;;;;;;;5019504;28;20021;-48
2021/01/06 02:37:42;;;;;;;1.58;1.23;;;;;;;;;;5031898;28;20032;-48
2021/01/06 02:40:08;;;;;;;1.90;1.10;;;;;;;;;;5032295;28;20030;-48
2021/01/06 02:42:34;;;;;;;1.77;1.30;;;;;;;;;;5032723;28;20050;-48
2021/01/06 02:45:00;;;;;;;1.27;1.08;;;;;;;;;;5032415;28;20029;-49
2021/01/06 02:47:26;;;;;;;1.20;1.10;;;;;;;;;;5049044;28;20036;-48
2021/01/06 02:49:52;;;;;;;1.33;1.05;;;;;;;;;;5049750;28;20025;-49
2021/01/06 02:52:20;;;;;;;1.88;1.10;;;;;;;;;;5050104;28;20043;-48
2021/01/06 02:54:46;;;;;;;1.42;1.13;;;;;;;;;;5032351;28;20400;-49
2021/01/06 02:57:13;;;;;;;2.28;1.45;;;;;;;;;;5032709;28;20124;-48
2021/01/06 02:59:39;;;;;;;1.90;1.40;;;;;;;;;;5031187;28;20017;-48
2021/01/06 03:02:06;;;;;;;1.27;1.17;;;;;;;;;;5031604;28;20463;-49
2021/01/06 03:04:32;;;;;;;1.77;1.30;;;;;;;;;;5031360;28;20540;-48
2021/01/06 03:07:01;;;;;;;1.98;1.30;;;;;;;;;;5032010;28;20394;-48
2021/01/06 03:09:29;;;;;;;1.67;1.10;;;;;;;;;;5048661;28;20430;-48
2021/01/06 03:11:55;;;;;;;2.03;1.35;;;;;;;;;;5049402;28;20029;-48
2021/01/06 03:14:22;;;;;;;1.17;1.08;;;;;;;;;;5031541;28;20052;-50
2021/01/06 03:16:48;;;;;;;2.33;1.30;;;;;;;;;;5032018;28;20061;-50
2021/01/06 03:19:14;;;;;;;1.70;1.40;;;;;;;;;;5032727;28;20063;-49
2021/01/06 03:21:40;;;;;;;1.50;1.20;;;;;;;;;;5031048;28;20029;-49
2021/01/06 03:24:06;;;;;;;1.75;1.23;;;;;;;;;;5049066;28;20029;-48
2021/01/06 03:26:32;;;;;;;1.23;1.13;;;;;;;;;;5030858;28;20037;-48
2021/01/06 03:28:58;;;;;;;2.08;1.40;;;;;;;;;;5031451;28;20033;-48
2021/01/06 03:31:25;;;;;;;2.30;1.20;;;;;;;;;;5018005;28;20144;-48
2021/01/06 03:33:54;;;;;;;1.38;1.25;;;;;;;;;;5028744;28;20029;-49
2021/01/06 03:36:22;;;;;;;1.33;1.10;;;;;;;;;;5029490;28;20033;-49
2021/01/06 03:38:57;;;;;;;2.53;1.40;;;;;;;;;;5031734;28;20020;-48
2021/01/06 03:41:23;;;;;;;1.15;1.00;;;;;;;;;;5029733;28;20108;-51
2021/01/06 03:43:50;;;;;;;1.35;1.13;;;;;;;;;;5049096;28;20484;-49
2021/01/06 03:46:21;;;;;;;2.67;1.15;;;;;;;;;;5031478;28;20487;-48
2021/01/06 03:48:50;;;;;;;1.30;1.20;;;;;;;;;;5031422;28;20564;-48
2021/01/06 03:51:19;;;;;;;1.42;1.27;;;;;;;;;;5048869;28;20036;-49
2021/01/06 03:53:47;;;;;;;1.60;1.20;;;;;;;;;;5048521;28;20068;-48
2021/01/06 03:56:23;;;;;;;1.35;1.10;;;;;;;;;;5031546;28;20076;-48
2021/01/06 03:58:59;;;;;;;1.15;0.98;;;;;;;;;;5007213;28;20052;-49
2021/01/06 04:01:44;;;;;;;1.23;1.00;;;;;;;;;;5046038;28;20028;-48
2021/01/06 04:04:09;;;;;;;1.35;1.00;;;;;;;;;;5046237;28;20037;-48
2021/01/06 04:06:35;;;;;;;1.63;1.20;;;;;;;;;;5045699;28;20055;-49
2021/01/06 04:09:02;;;;;;;1.20;0.90;;;;;;;;;;5030736;28;20021;-48
2021/01/06 04:11:29;;;;;;;1.85;1.15;;;;;;;;;;5030209;28;20072;-48
2021/01/06 04:13:56;;;;;;;1.70;1.15;;;;;;;;;;5030229;28;20471;-48
2021/01/06 04:16:22;;;;;;;1.08;0.98;;;;;;;;;;5048877;28;20025;-47
2021/01/06 04:18:48;;;;;;;1.35;1.00;;;;;;;;;;5048800;28;20364;-48
2021/01/06 04:21:14;;;;;;;1.52;1.20;;;;;;;;;;5048181;28;20021;-49
2021/01/06 04:23:40;;;;;;;1.33;0.95;;;;;;;;;;5047300;28;20091;-49
2021/01/06 04:26:06;;;;;;;1.70;1.20;;;;;;;;;;5044913;28;20055;-48
2021/01/06 04:28:35;;;;;;;1.10;1.00;;;;;;;;;;5047365;28;20025;-48
2021/01/06 04:31:13;;;;;;;1.73;1.10;;;;;;;;;;5030280;28;20063;-47
2021/01/06 04:33:52;;;;;;;1.52;1.13;;;;;;;;;;5047914;28;20020;-48
2021/01/06 04:36:19;;;;;;;1.95;1.17;;;;;;;;;;5029399;28;20057;-47
2021/01/06 04:38:46;;;;;;;1.40;1.20;;;;;;;;;;5047974;28;20025;-48
2021/01/06 04:41:12;;;;;;;1.60;1.10;;;;;;;;;;5049102;28;20031;-48
2021/01/06 04:43:41;;;;;;;1.50;1.10;;;;;;;;;;5047242;28;20033;-48
2021/01/06 04:46:10;;;;;;;1.30;1.10;;;;;;;;;;5029946;28;20064;-49
2021/01/06 04:48:39;;;;;;;1.52;1.10;;;;;;;;;;5047114;28;20124;-48
2021/01/06 04:51:24;;;;;;;1.75;1.10;;;;;;;;;;5047452;28;20399;-47
2021/01/06 04:53:50;;;;;;;1.48;1.10;;;;;;;;;;5048721;28;20538;-48
2021/01/06 04:56:36;;;;;;;1.85;1.10;;;;;;;;;;5047881;28;20104;-48
2021/01/06 04:59:17;;;;;;;2.17;1.10;;;;;;;;;;5035432;28;20025;-48
2021/01/06 05:02:02;;;;;;;1.40;1.17;;;;;;;;;;5047353;28;20683;-47
2021/01/06 05:04:46;;;;;;;1.30;0.90;;;;;;;;;;5046423;28;20037;-49
2021/01/06 05:07:42;;;;;;;1.52;1.10;;;;;;;;;;5047743;28;20042;-48
2021/01/06 05:10:10;;;;;;;1.90;1.00;;;;;;;;;;5027593;28;20427;-48
2021/01/06 05:12:42;;;;;;;1.70;1.10;;;;;;;;;;5046785;28;20036;-48
2021/01/06 05:15:11;;;;;;;1.20;1.10;;;;;;;;;;5029661;28;20064;-48
2021/01/06 05:17:38;;;;;;;1.23;1.13;;;;;;;;;;5046514;28;20025;-47
2021/01/06 05:20:04;;;;;;;1.65;1.30;;;;;;;;;;5029434;28;20091;-48
2021/01/06 05:22:30;;;;;;;1.38;1.10;;;;;;;;;;5028472;28;20099;-48
2021/01/06 05:24:56;;;;;;;1.23;1.10;;;;;;;;;;5050951;28;20111;-47
2021/01/06 05:27:35;;;;;;;1.20;1.10;;;;;;;;;;5051357;28;20021;-48
2021/01/06 05:30:01;;;;;;;1.33;1.00;;;;;;;;;;5031966;28;20075;-48
2021/01/06 05:32:31;;;;;;;1.10;1.00;;;;;;;;;;5050761;28;20029;-47
2021/01/06 05:35:17;;;;;;;1.88;1.10;;;;;;;;;;5033483;28;20032;-48
2021/01/06 05:37:44;;;;;;;1.10;1.00;;;;;;;;;;5050848;28;20018;-47
2021/01/06 05:40:13;;;;;;;1.38;1.00;;;;;;;;;;5050985;28;20018;-48
2021/01/06 05:42:58;;;;;;;1.75;1.10;;;;;;;;;;5032742;28;20026;-49
2021/01/06 05:45:28;;;;;;;1.90;1.27;;;;;;;;;;5050594;28;20058;-50
2021/01/06 05:47:57;;;;;;;2.35;1.02;;;;;;;;;;5047199;28;20392;-48
2021/01/06 05:50:27;;;;;;;1.20;1.10;;;;;;;;;;5050447;28;20056;-49
2021/01/06 05:52:59;;;;;;;1.42;1.02;;;;;;;;;;5031668;28;20087;-48
2021/01/06 05:55:25;;;;;;;1.40;1.20;;;;;;;;;;5032565;28;20489;-48
2021/01/06 05:57:56;;;;;;;1.20;0.93;;;;;;;;;;5031014;28;20029;-48
2021/01/06 06:00:29;;;;;;;1.00;0.90;;;;;;;;;;5048419;28;20029;-48
2021/01/06 06:03:14;;;;;;;1.30;1.05;;;;;;;;;;5031148;28;20254;-49
2021/01/06 06:05:41;;;;;;;1.08;0.95;;;;;;;;;;5050742;28;20087;-48
2021/01/06 06:08:13;;;;;;;1.70;1.25;;;;;;;;;;5050412;28;20029;-48
2021/01/06 06:11:04;;;;;;;1.27;1.10;;;;;;;;;;5050844;28;20025;-48
2021/01/06 06:13:35;;;;;;;1.00;0.90;;;;;;;;;;5033087;28;20484;-48
2021/01/06 06:16:04;;;;;;;1.02;0.90;;;;;;;;;;5032518;28;20063;-49
2021/01/06 06:18:39;;;;;;;1.05;0.95;;;;;;;;;;5049204;28;20044;-48
2021/01/06 06:21:31;;;;;;;1.05;1.00;;;;;;;;;;5051189;28;20017;-48
2021/01/06 06:23:57;;;;;;;;;;;;;;;;;;5018141;28;20102;-48
2021/01/06 06:26:40;;;;;;;1.00;0.90;;;;;;;;;;5049897;28;20429;-48
2021/01/06 06:29:23;;;;;;;1.08;0.98;;;;;;;;;;5032380;28;20025;-49
2021/01/06 06:31:51;;;;;;;0.90;0.90;;;;;;;;;;5033188;28;20063;-49
2021/01/06 06:34:16;;;;;;;1.10;1.00;;;;;;;;;;5032991;28;20163;-49
2021/01/06 06:36:44;;;;;;;1.50;1.00;;;;;;;;;;5031241;28;20504;-49
2021/01/06 06:39:30;;;;;;;1.13;0.90;;;;;;;;;;5032402;28;20061;-48
2021/01/06 06:42:01;;;;;;;1.10;1.00;;;;;;;;;;5049939;28;20070;-50
2021/01/06 06:44:29;;;;;;;1.20;1.10;;;;;;;;;;5031583;28;20078;-48
2021/01/06 06:47:02;;;;;;;1.50;1.10;;;;;;;;;;5049515;28;20095;-48
2021/01/06 06:49:48;;;;;;;1.25;1.15;;;;;;;;;;5049232;28;20021;-48
2021/01/06 06:52:14;;;;;;;1.70;1.13;;;;;;;;;;5049603;28;20527;-49
2021/01/06 06:54:58;;;;;;;1.23;1.13;;;;;;;;;;5049053;28;20148;-48
2021/01/06 06:57:24;;;;;;;1.70;1.20;;;;;;;;;;5048178;28;20036;-49
2021/01/06 06:59:56;;;;;;;1.70;1.20;;;;;;;;;;5048135;28;20086;-49
2021/01/06 07:02:22;;;;;;;1.67;1.20;;;;;;;;;;5047579;28;20099;-48
2021/01/06 07:04:50;;;;;;;2.03;1.35;;;;;;;;;;5032100;28;20112;-48
2021/01/06 07:07:42;;;;;;;1.30;1.20;;;;;;;;;;5049147;28;20487;-47
2021/01/06 07:10:08;;;;;;;;;;;;;;;;;;5045432;28;20037;-47
2021/01/06 07:12:38;;;;;;;1.20;1.10;;;;;;;;;;5048750;28;19905;-48
2021/01/06 07:15:04;;;;;;;1.25;1.00;;;;;;;;;;5031455;28;20056;-50
2021/01/06 07:17:34;;;;;;;1.45;1.20;;;;;;;;;;5033153;28;20021;-49
2021/01/06 07:20:11;;;;;;;1.20;1.00;;;;;;;;;;5049056;28;20021;-48
2021/01/06 07:22:41;;;;;;;1.50;1.05;;;;;;;;;;5048130;28;20395;-48
2021/01/06 07:25:10;;;;;;;1.48;1.20;;;;;;;;;;5031234;28;20112;-49
2021/01/06 07:27:36;;;;;;;1.23;1.10;;;;;;;;;;5048114;28;20137;-48
2021/01/06 07:30:08;;;;;;;1.40;1.20;;;;;;;;;;5048860;28;20064;-49
2021/01/06 07:32:43;;;;;;;2.45;1.45;;;;;;;;;;5048239;28;20035;-49
2021/01/06 07:35:12;;;;;;;1.98;1.30;;;;;;;;;;5031498;28;20025;-49
2021/01/06 07:37:40;;;;;;;1.27;1.10;;;;;;;;;;5032495;28;20025;-48
2021/01/06 07:40:12;;;;;;;1.63;1.20;;;;;;;;;;5048534;28;20052;-49
2021/01/06 07:42:38;;;;;;;;;;;;;;;;;;5048130;28;20033;-49
2021/01/06 07:45:30;;;;;;;1.20;1.10;;;;;;;;;;5044384;28;19904;-50
2021/01/06 07:48:14;;;;;;;2.17;1.40;;;;;;;;;;5042005;28;20037;-48
2021/01/06 07:50:40;;;;;;;1.73;1.30;;;;;;;;;;5049013;28;20032;-49
2021/01/06 07:53:08;;;;;;;1.75;1.10;;;;;;;;;;5029587;28;20427;-49
2021/01/06 07:55:34;;;;;;;1.73;1.38;;;;;;;;;;5029806;28;20095;-49
2021/01/06 07:58:05;;;;;;;1.88;1.13;;;;;;;;;;5034093;28;20136;-48
2021/01/06 08:00:33;;;;;;;2.17;1.40;;;;;;;;;;5030308;28;20052;-48
2021/01/06 08:03:23;;;;;;;1.58;1.25;;;;;;;;;;5029673;28;20486;-49
2021/01/06 08:05:59;;;;;;;1.50;1.30;;;;;;;;;;4996573;28;20060;-49
2021/01/06 08:08:25;;;;;;;1.90;1.30;;;;;;;;;;5029476;28;20692;-48
2021/01/06 08:10:51;;;;;;;1.17;1.08;;;;;;;;;;5045135;28;20022;-48
2021/01/06 08:13:30;;;;;;;2.17;1.50;;;;;;;;;;5029032;28;20502;-49
2021/01/06 08:16:05;;;;;;;1.80;1.27;;;;;;;;;;5029252;28;20025;-49
2021/01/06 08:18:36;;;;;;;1.45;1.20;;;;;;;;;;5046828;28;20025;-49
2021/01/06 08:21:03;;;;;;;2.17;1.30;;;;;;;;;;5030567;28;20032;-49
2021/01/06 08:23:39;;;;;;;1.45;1.30;;;;;;;;;;5046982;28;20095;-48
2021/01/06 08:26:23;;;;;;;1.30;1.10;;;;;;;;;;5030135;28;20090;-48
2021/01/06 08:28:49;;;;;;;1.52;1.20;;;;;;;;;;5047508;28;20029;-49
2021/01/06 08:31:17;;;;;;;1.75;1.38;;;;;;;;;;5027928;28;20028;-48
2021/01/06 08:33:47;;;;;;;1.65;1.30;;;;;;;;;;5030003;28;20540;-50
2021/01/06 08:36:13;;;;;;;1.70;1.30;;;;;;;;;;5025474;28;20099;-48
2021/01/06 08:38:44;;;;;;;2.53;1.67;;;;;;;;;;5044642;28;20049;-49
2021/01/06 08:41:16;;;;;;;1.25;1.15;;;;;;;;;;5046446;28;20395;-52
2021/01/06 08:43:42;;;;;;;2.13;1.50;;;;;;;;;;5046362;28;20111;-48
2021/01/06 08:46:19;;;;;;;1.55;1.30;;;;;;;;;;5028563;28;20057;-48
2021/01/06 08:48:44;;;;;;;2.35;1.55;;;;;;;;;;5029018;28;20028;-48
2021/01/06 08:51:31;;;;;;;1.33;1.23;;;;;;;;;;5048426;28;20032;-48
2021/01/06 08:53:57;;;;;;;1.50;1.20;;;;;;;;;;5046166;28;20033;-48
2021/01/06 08:56:24;;;;;;;1.20;1.10;;;;;;;;;;5045876;28;20029;-48
2021/01/06 08:58:54;;;;;;;1.73;1.33;;;;;;;;;;5047003;28;20360;-48
2021/01/06 09:01:25;;;;;;;1.30;1.17;;;;;;;;;;5015658;28;20049;-49
2021/01/06 09:03:54;;;;;;;1.95;1.33;;;;;;;;;;5026648;28;20110;-48
2021/01/06 09:06:21;;;;;;;2.47;1.10;;;;;;;;;;4694804;28;9999848;-48
2021/01/06 09:08:50;;;;;;;1.20;1.10;;;;;;;;;;5047142;28;20032;-48
2021/01/06 09:11:19;;;;;;;1.45;1.30;;;;;;;;;;5030713;28;20361;-48
2021/01/06 09:13:57;;;;;;;1.58;1.20;;;;;;;;;;5046469;28;20036;-49
2021/01/06 09:16:32;;;;;;;1.40;1.20;;;;;;;;;;5023192;28;20472;-48
2021/01/06 09:19:01;;;;;;;1.50;1.30;;;;;;;;;;5025993;28;20033;-48
2021/01/06 09:21:30;;;;;;;1.23;1.10;;;;;;;;;;5044372;28;20119;-48
2021/01/06 09:24:02;;;;;;;1.50;1.30;;;;;;;;;;5029634;28;20087;-48
2021/01/06 09:26:28;;;;;;;1.77;1.30;;;;;;;;;;5045944;28;20025;-48
2021/01/06 09:29:18;;;;;;;1.60;1.20;;;;;;;;;;5029193;28;20055;-48
2021/01/06 09:31:44;;;;;;;1.00;1.00;;;;;;;;;;5035819;28;20488;-48
2021/01/06 09:34:12;;;;;;;1.70;1.35;;;;;;;;;;5047027;28;20021;-48
2021/01/06 09:36:38;;;;;;;1.48;1.30;;;;;;;;;;5045769;28;20025;-48
2021/01/06 09:39:05;;;;;;;1.98;1.30;;;;;;;;;;5028401;28;20486;-49
2021/01/06 09:41:32;;;;;;;1.90;1.25;;;;;;;;;;5027598;28;20029;-48
2021/01/06 09:43:59;;;;;;;1.55;1.30;;;;;;;;;;5032714;28;20029;-48
2021/01/06 09:46:34;;;;;;;2.03;1.42;;;;;;;;;;5027895;28;20047;-48
2021/01/06 09:49:01;;;;;;;1.20;1.10;;;;;;;;;;5026360;28;20037;-48
2021/01/06 09:51:27;;;;;;;1.83;1.10;;;;;;;;;;5028548;28;20028;-48
2021/01/06 09:53:54;;;;;;;1.40;1.25;;;;;;;;;;5029120;28;20108;-48
2021/01/06 09:56:20;;;;;;;1.33;1.20;;;;;;;;;;5028186;28;20459;-49
2021/01/06 09:58:46;;;;;;;1.48;1.20;;;;;;;;;;5028904;28;20372;-48
2021/01/06 10:01:16;;;;;;;1.23;1.10;;;;;;;;;;5027044;28;20038;-48
2021/01/06 10:03:42;;;;;;;1.23;1.13;;;;;;;;;;5043517;28;20038;-48
2021/01/06 10:06:27;;;;;;;0.90;0.85;;;;;;;;;;5045384;28;20025;-48
2021/01/06 10:08:56;;;;;;;1.08;0.98;;;;;;;;;;5046528;28;20445;-48
2021/01/06 10:11:27;;;;;;;1.38;1.10;;;;;;;;;;5029498;28;20021;-48
2021/01/06 10:14:15;;;;;;;1.30;1.20;;;;;;;;;;5031312;28;20025;-48
2021/01/06 10:16:45;;;;;;;1.60;1.10;;;;;;;;;;5032137;28;20067;-48
2021/01/06 10:19:11;;;;;;;1.45;1.20;;;;;;;;;;5050181;28;20025;-50
2021/01/06 10:21:46;;;;;;;1.40;1.10;;;;;;;;;;5048493;28;20172;-48
2021/01/06 10:24:33;;;;;;;1.15;1.05;;;;;;;;;;5049146;28;20435;-48
2021/01/06 10:27:19;;;;;;;1.15;1.00;;;;;;;;;;5031037;28;20029;-47
2021/01/06 10:29:46;;;;;;;1.23;0.90;;;;;;;;;;5049638;28;20083;-48
2021/01/06 10:32:12;;;;;;;1.50;1.20;;;;;;;;;;5049031;28;20021;-49
2021/01/06 10:34:38;;;;;;;1.25;1.02;;;;;;;;;;5048579;28;20391;-48
2021/01/06 10:37:05;;;;;;;1.40;1.10;;;;;;;;;;5035069;28;20025;-49
2021/01/06 10:39:34;;;;;;;0.90;0.90;;;;;;;;;;5048831;28;20020;-48
2021/01/06 10:42:00;;;;;;;1.52;0.80;;;;;;;;;;5049041;28;20021;-48
2021/01/06 10:44:27;;;;;;;1.52;1.10;;;;;;;;;;5048387;28;20033;-48
2021/01/06 10:46:54;;;;;;;1.23;1.10;;;;;;;;;;5032228;28;20114;-48
2021/01/06 10:49:20;;;;;;;1.55;1.10;;;;;;;;;;4698076;28;9999916;-48
2021/01/06 10:51:56;;;;;;;1.45;1.20;;;;;;;;;;5049245;28;20053;-48
2021/01/06 10:54:32;;;;;;;1.35;1.23;;;;;;;;;;5048307;28;20052;-47
2021/01/06 10:56:58;;;;;;;1.10;1.00;;;;;;;;;;5029044;28;20025;-48
2021/01/06 10:59:25;;;;;;;1.00;0.93;;;;;;;;;;5030732;28;20090;-49
2021/01/06 11:02:06;;;;;;;1.17;1.08;;;;;;;;;;5049577;28;20033;-49
2021/01/06 11:04:53;;;;;;;1.20;1.10;;;;;;;;;;5048306;28;20512;-48
2021/01/06 11:07:25;;;;;;;1.10;1.00;;;;;;;;;;5030691;28;20076;-48
2021/01/06 11:10:14;;;;;;;1.50;1.17;;;;;;;;;;5032140;28;20154;-48
2021/01/06 11:12:43;;;;;;;1.50;1.17;;;;;;;;;;5004593;28;20115;-48
2021/01/06 11:15:12;;;;;;;2.00;1.27;;;;;;;;;;5048044;28;20029;-48
2021/01/06 11:17:39;;;;;;;1.98;1.23;;;;;;;;;;5047917;28;20033;-47
2021/01/06 11:20:11;;;;;;;1.35;1.25;;;;;;;;;;5018244;28;20017;-48
2021/01/06 11:22:43;;;;;;;1.60;1.30;;;;;;;;;;5048229;28;20119;-49
2021/01/06 11:25:28;;;;;;;1.20;1.10;;;;;;;;;;5031123;28;20078;-48
2021/01/06 11:27:57;;;;;;;1.08;0.98;;;;;;;;;;5046381;28;20024;-49
2021/01/06 11:30:23;;;;;;;5.22;3.08;;;;;;;;;;5044465;28;20033;-49
2021/01/06 11:32:49;;;;;;;3.65;1.50;;;;;;;;;;5047209;28;20029;-48
2021/01/06 11:35:20;;;;;;;1.20;1.10;;;;;;;;;;5030636;28;20483;-50
2021/01/06 11:37:46;;;;;;;2.23;1.27;;;;;;;;;;5030628;28;20025;-48
2021/01/06 11:40:18;;;;;;;1.40;1.30;;;;;;;;;;5046610;28;20048;-49
2021/01/06 11:42:44;;;;;;;;;;;;;;;;;;5031563;28;20040;-48
2021/01/06 11:45:13;;;;;;;2.47;1.17;;;;;;;;;;5047934;28;19904;-48
2021/01/06 11:47:47;;;;;;;1.30;1.20;;;;;;;;;;5047353;28;20061;-47
2021/01/06 11:50:32;;;;;;;1.50;1.17;;;;;;;;;;5030071;28;20031;-48
2021/01/06 11:53:07;;;;;;;1.60;1.30;;;;;;;;;;5047320;28;20032;-49
2021/01/06 11:55:42;;;;;;;1.63;1.10;;;;;;;;;;5030473;28;20032;-48
2021/01/06 11:58:08;;;;;;;1.92;1.40;;;;;;;;;;5047517;28;20135;-48
2021/01/06 12:00:40;;;;;;;2.10;1.30;;;;;;;;;;5047255;28;20067;-48
2021/01/06 12:03:06;;;;;;;;;;;;;;;;;;5047356;28;20124;-49
2021/01/06 12:05:34;;;;;;;2.00;1.20;;;;;;;;;;5045710;28;20042;-48
2021/01/06 12:08:12;;;;;;;2.10;1.52;;;;;;;;;;5028723;28;20025;-48
2021/01/06 12:10:44;;;;;;;2.15;1.55;;;;;;;;;;5047339;28;20035;-48
2021/01/06 12:13:25;;;;;;;1.38;1.20;;;;;;;;;;5047045;28;20021;-48
2021/01/06 12:16:01;;;;;;;1.57;1.37;;;;;;;;;;5047690;28;20032;-48
2021/01/06 12:18:27;;;;;;;2.22;1.58;;;;;;;;;;5046402;28;20250;-48
2021/01/06 12:20:53;;;;;;;1.77;1.38;;;;;;;;;;5048464;28;20017;-48
2021/01/06 12:23:36;;;;;;;1.50;1.20;;;;;;;;;;5046917;28;20468;-48
2021/01/06 12:26:02;;;;;;;1.90;1.30;;;;;;;;;;5028187;28;20470;-48
2021/01/06 12:28:35;;;;;;;2.20;1.20;;;;;;;;;;5029103;28;20029;-48
2021/01/06 12:31:04;;;;;;;1.30;1.20;;;;;;;;;;5029331;28;20032;-48
2021/01/06 12:33:35;;;;;;;1.83;1.30;;;;;;;;;;5045043;28;20048;-47
2021/01/06 12:36:05;;;;;;;1.23;1.10;;;;;;;;;;5028967;28;20020;-46
2021/01/06 12:38:31;;;;;;;1.38;1.10;;;;;;;;;;5016160;28;20126;-47
2021/01/06 12:40:58;;;;;;;10.98;5.40;;;;;;;;;;5030551;28;20064;-48
2021/01/06 12:43:26;;;;;;;13.60;5.97;;;;;;;;;;5046514;28;20510;-48
2021/01/06 12:46:27;;;;;;;13.30;5.10;;;;;;;;;;5029120;28;20112;-48
2021/01/06 12:48:59;;;;;;;11.10;5.20;;;;;;;;;;4966099;28;20035;-48
2021/01/06 12:51:26;;;;;;;10.55;4.50;;;;;;;;;;5034233;28;20060;-48
2021/01/06 12:53:55;;;;;;;11.40;4.53;;;;;;;;;;5026559;28;20033;-49
2021/01/06 12:56:32;;;;;;;13.25;5.35;;;;;;;;;;5046428;28;20120;-49
2021/01/06 12:59:03;;;;;;;13.63;5.57;;;;;;;;;;5002728;28;20060;-48
2021/01/06 13:01:41;;;;;;;10.40;6.03;;;;;;;;;;5028365;28;20025;-48
2021/01/06 13:04:08;;;;;;;11.05;5.00;;;;;;;;;;5028901;28;20100;-48
2021/01/06 13:06:55;;;;;;;11.20;4.55;;;;;;;;;;5028412;28;20502;-48
2021/01/06 13:09:34;;;;;;;9.77;4.40;;;;;;;;;;5046504;28;20553;-49
2021/01/06 13:12:02;;;;;;;7.30;4.40;;;;;;;;;;5044569;28;20459;-49
2021/01/06 13:15:03;;;;;;;10.55;4.50;;;;;;;;;;5029380;28;20025;-48
2021/01/06 13:17:37;;;;;;;11.83;4.77;;;;;;;;;;4950016;28;20490;-48
2021/01/06 13:20:09;;;;;;;9.90;4.45;;;;;;;;;;5020016;28;20254;-47
2021/01/06 13:22:41;;;;;;;9.65;4.78;;;;;;;;;;5044576;28;20025;-47
2021/01/06 13:25:10;;;;;;;9.93;4.75;;;;;;;;;;5045919;28;20079;-48
2021/01/06 13:28:06;;;;;;;10.95;5.00;;;;;;;;;;5045242;28;20435;-48
2021/01/06 13:30:35;;;;;;;7.93;4.38;;;;;;;;;;5023492;28;20112;-48
2021/01/06 13:33:09;;;;;;;9.35;4.30;;;;;;;;;;5046917;28;20064;-47
2021/01/06 13:35:36;;;;;;;9.30;4.57;;;;;;;;;;5028895;28;20139;-49
2021/01/06 13:38:22;;;;;;;8.45;4.30;;;;;;;;;;5028309;28;20025;-51
2021/01/06 13:40:49;;;;;;;9.20;4.68;;;;;;;;;;5037064;28;20067;-51
2021/01/06 13:43:33;;;;;;;8.77;5.00;;;;;;;;;;4989724;28;20050;-48
2021/01/06 13:46:10;;;;;;;8.25;4.10;;;;;;;;;;5028736;28;20030;-50
2021/01/06 13:48:37;;;;;;;1.83;1.48;;;;;;;;;;5015944;28;20034;-61
2021/01/06 13:51:11;;;;;;;2.13;1.50;;;;;;;;;;5034893;28;20411;-59
2021/01/06 13:53:54;;;;;;;1.88;1.50;;;;;;;;;;5033207;28;20065;-60
2021/01/06 13:56:29;;;;;;;1.88;1.30;;;;;;;;;;5017733;28;20036;-62
2021/01/06 13:59:04;;;;;;;1.65;1.40;;;;;;;;;;5015138;28;20029;-53
2021/01/06 14:01:38;;;;;;;1.50;1.40;;;;;;;;;;5032355;28;20021;-51
2021/01/06 14:04:04;;;;;;;1.52;1.42;;;;;;;;;;5034792;28;20527;-48
2021/01/06 14:06:30;;;;;;;1.55;1.30;;;;;;;;;;5035057;28;20021;-48
2021/01/06 14:08:56;;;;;;;2.72;1.77;;;;;;;;;;5008616;28;20415;-48
2021/01/06 14:11:41;;;;;;;2.45;1.63;;;;;;;;;;5034500;28;20034;-49
2021/01/06 14:14:29;;;;;;;1.85;1.58;;;;;;;;;;5034062;28;20038;-49
2021/01/06 14:16:58;;;;;;;2.10;1.42;;;;;;;;;;5032434;28;20112;-49
2021/01/06 14:23:14;;;;;;;2.05;1.70;;;;;;;;;;5100903;27;20379;-58
2021/01/06 14:25:56;;;;;;;2.03;1.60;;;;;;;;;;5094845;28;20523;-51
2021/01/06 14:28:22;;;;;;;2.53;1.67;;;;;;;;;;5091554;28;20028;-57
2021/01/06 14:31:06;;;;;;;1.90;1.60;;;;;;;;;;5092891;28;20047;-55
2021/01/06 14:33:50;;;;;;;1.52;1.42;;;;;;;;;;5090347;28;20492;-54
2021/01/06 14:36:25;;;;;;;1.58;1.40;;;;;;;;;;5094303;28;20021;-54
2021/01/06 14:38:51;;;;;;;1.88;1.45;;;;;;;;;;5090471;28;20482;-56
2021/01/06 14:41:27;;;;;;;1.48;1.33;;;;;;;;;;5094016;28;20027;-53
2021/01/06 14:44:12;;;;;;;2.20;1.67;;;;;;;;;;5089219;28;20021;-55
2021/01/06 14:46:56;;;;;;;1.65;1.33;;;;;;;;;;5090451;28;20091;-55
2021/01/06 14:49:30;;;;;;;1.33;1.20;;;;;;;;;;5091873;28;20103;-57
2021/01/06 14:51:59;;;;;;;1.70;1.38;;;;;;;;;;5088329;28;20104;-56
2021/01/06 14:54:44;;;;;;;1.48;1.38;;;;;;;;;;5094807;28;20024;-54
2021/01/06 14:57:28;;;;;;;1.23;1.13;;;;;;;;;;5093489;28;20117;-57
2021/01/06 15:00:03;;;;;;;1.55;1.45;;;;;;;;;;5090380;28;20029;-58
2021/01/06 15:02:30;;;;;;;1.80;1.45;;;;;;;;;;5092279;28;20410;-56
2021/01/06 15:05:08;;;;;;;1.63;1.40;;;;;;;;;;5074927;28;20021;-57
2021/01/06 15:07:53;;;;;;;1.60;1.40;;;;;;;;;;5088384;28;20032;-58
2021/01/06 15:10:26;;;;;;;1.90;1.45;;;;;;;;;;5092972;28;20466;-58